Airfield :
LOGIN :

Register | Disclaimer

   EN    FR    IT 

 










Legend :    VFR   Marginal VFR   IFR   Intensive IFR   Very Intensive IFR
Visi :
Ceiling :
>= 8 km
>= 3000ft
5 to 8 km
1000 to 3000 ft
1500m to 5 km
500 to 1000 ft
800 to 1500m
200 to 500 ft
< 800m
< 200 ft
Symbols :   Thunderstorms  Fog  Heavy snow  Heavy precipitations  Wind > 20 kt
SIGMETs :     Misc.  Thunderstorms  Icing  Turbulence  Mountain Waves  Volcanic Ashes






- Airport Elevation : 751 ft
- IATA code : ENC


LFSN - Nancy Essey

CURRENT METAR :
  • 231800Z AUTO VRB02KT CAVOK 15/12 Q1017

EXPIRED METARs :
  • 231730Z AUTO VRB03KT CAVOK 15/11 Q1017
  • 231700Z AUTO VRB02KT 9999 -RA NSC 16/14 Q1016
  • 231630Z AUTO VRB02KT 9999 RA ///CB 15/13 Q1016
  • 231600Z AUTO 25005KT 220V300 9999 ///CB 15/11 Q1016
  • 231530Z AUTO 24008KT 180V280 9999 TS FEW041/// BKN052/// BKN062/// ///CB 16/12 Q1016
  • 231500Z AUTO 11004KT 050V170 9999 FEW042/// BKN070/// OVC086/// //////CB 18/13 Q1016
  • 231430Z AUTO 06005KT 9999 VCTS FEW045/// OVC064/// ///CB 18/12 Q1016
  • 231400Z AUTO VRB05KT 3000 1400 R03/1400U +RA HZ FEW036/// BKN046/// OVC054/// ///CB 17/09 Q1016
  • 231330Z AUTO 05003KT 020V080 9999 BKN048/// BKN054/// OVC088/// ///CB 20/09 Q1016

Expired Forecast.



MET'MAP, your aeronautical weather chart ! - Copyright ORBIFLY December 2007 - Disclaimer

ORBIFLY MET'MAP TEAM :

Programming & Development : Alexandra Zaïnal
Original concept : Baudouin d'Aumeries
Technical & hardware support : Manuel Goepfert
Assistance : Marc-Olivier Méhu




SOURCES & CREDITS :

   NOAA